Time;durP1;ratioP1;P1;durP2;ratioP2;P2;SDS_P1;SDS_P2;PMS_P1;PMS_P2;Temp;Humidity;BMP_temperature;BMP_pressure;BME280_temperature;BME280_humidity;BME280_pressure;Samples;Min_cycle;Max_cycle;Signal;HPM_P1;HPM_P2
2022/11/18 00:00:48;;;;;;;51.63;48.63;;;4.20;99.90;;;;;;5068080;28;20391;-55
2022/11/18 00:03:14;;;;;;;54.90;51.70;;;4.30;99.90;;;;;;5065042;28;20386;-58
2022/11/18 00:05:40;;;;;;;56.13;52.83;;;4.30;99.90;;;;;;5065861;28;20490;-58
2022/11/18 00:08:05;;;;;;;51.73;48.70;;;4.30;99.90;;;;;;5067998;28;20515;-56
2022/11/18 00:10:31;;;;;;;50.63;47.63;;;4.40;99.90;;;;;;5070243;28;20379;-57
2022/11/18 00:15:41;;;;;;;53.20;50.10;;;4.30;99.90;;;;;;5068333;28;20724;-59
2022/11/18 00:18:06;;;;;;;51.33;48.33;;;4.30;99.90;;;;;;5066367;28;20779;-52
2022/11/18 00:20:33;;;;;;;55.40;52.00;;;4.30;99.90;;;;;;5066617;28;20924;-55
2022/11/18 00:22:59;;;;;;;54.17;51.03;;;4.30;99.90;;;;;;5067640;28;20660;-56
2022/11/18 00:25:25;;;;;;;54.57;51.37;;;4.30;99.90;;;;;;5065142;28;20494;-56
2022/11/18 00:27:51;;;;;;;53.35;50.25;;;4.30;99.90;;;;;;5064693;28;20453;-56
2022/11/18 00:30:16;;;;;;;50.57;47.47;;;4.30;99.90;;;;;;5066114;28;20381;-56
2022/11/18 00:32:43;;;;;;;54.60;51.33;;;4.20;99.90;;;;;;5067010;28;20486;-57
2022/11/18 00:35:09;;;;;;;50.97;47.97;;;4.30;99.90;;;;;;5067202;28;20390;-57
2022/11/18 00:37:35;;;;;;;53.37;50.17;;;4.20;99.90;;;;;;5066073;28;20551;-56
2022/11/18 00:40:00;;;;;;;54.93;51.63;;;4.20;99.90;;;;;;5063992;28;20380;-56
2022/11/18 00:45:10;;;;;;;53.17;49.93;;;4.20;99.90;;;;;;5067554;28;20439;-56
2022/11/18 00:47:36;;;;;;;53.20;49.90;;;4.20;99.90;;;;;;5068157;28;20415;-57
2022/11/18 00:50:01;;;;;;;53.43;50.13;;;4.20;99.90;;;;;;5068625;28;20922;-57
2022/11/18 00:52:27;;;;;;;51.10;47.95;;;4.20;99.90;;;;;;5070020;28;20462;-57
2022/11/18 00:54:52;;;;;;;50.87;47.67;;;4.20;99.90;;;;;;5070488;28;20423;-57
2022/11/18 00:57:18;;;;;;;55.43;52.10;;;4.20;99.90;;;;;;5068471;28;20403;-56
2022/11/18 00:59:44;;;;;;;50.77;47.50;;;4.20;99.90;;;;;;5068990;28;20651;-57
2022/11/18 01:02:09;;;;;;;51.88;48.58;;;4.20;99.90;;;;;;5066859;28;20714;-56
2022/11/18 01:04:35;;;;;;;56.85;53.30;;;4.10;99.90;;;;;;5064410;28;20407;-56
2022/11/18 01:07:00;;;;;;;54.23;50.67;;;4.20;99.90;;;;;;5063347;28;20391;-56
2022/11/18 01:09:26;;;;;;;51.97;48.37;;;4.10;99.90;;;;;;5063487;28;20393;-54
2022/11/18 01:14:36;;;;;;;55.42;51.60;;;4.10;99.90;;;;;;5064073;28;20568;-55
2022/11/18 01:17:01;;;;;;;53.03;49.40;;;4.10;99.90;;;;;;5065160;28;20472;-55
2022/11/18 01:19:27;;;;;;;57.30;53.40;;;4.10;99.90;;;;;;5064188;28;20725;-54
2022/11/18 01:21:53;;;;;;;54.43;50.73;;;4.10;99.90;;;;;;5065439;28;20531;-54
2022/11/18 01:24:18;;;;;;;58.38;54.53;;;4.10;99.90;;;;;;5066764;28;20479;-57
2022/11/18 01:26:44;;;;;;;54.27;50.60;;;4.10;99.90;;;;;;5066501;28;20514;-55
2022/11/18 01:29:10;;;;;;;55.55;51.95;;;4.10;99.90;;;;;;5067668;28;20388;-57
2022/11/18 01:31:37;;;;;;;54.10;50.50;;;4.10;99.90;;;;;;5068987;28;20392;-57
2022/11/18 01:34:03;;;;;;;53.67;50.13;;;4.10;99.90;;;;;;5067859;28;20395;-57
2022/11/18 01:36:28;;;;;;;50.67;47.45;;;4.00;99.90;;;;;;5066393;28;20577;-55
2022/11/18 01:38:55;;;;;;;58.28;54.50;;;4.00;99.90;;;;;;5069204;28;20390;-57
2022/11/18 01:41:24;;;;;;;52.80;49.28;;;4.00;99.90;;;;;;5072288;28;20481;-55
2022/11/18 01:43:56;;;;;;;49.40;46.13;;;4.00;99.90;;;;;;5073857;28;20409;-57
2022/11/18 01:46:23;;;;;;;50.90;47.63;;;4.00;99.90;;;;;;5074000;28;20430;-55
2022/11/18 01:48:57;;;;;;;49.83;46.63;;;4.00;99.90;;;;;;5072693;28;20387;-56
2022/11/18 01:51:31;;;;;;;49.78;46.55;;;4.00;99.90;;;;;;5073714;28;20553;-54
2022/11/18 01:54:04;;;;;;;49.20;46.00;;;4.00;99.90;;;;;;5071574;28;20447;-56
2022/11/18 01:56:40;;;;;;;51.97;48.55;;;4.00;99.90;;;;;;5073154;28;20384;-55
2022/11/18 01:59:09;;;;;;;53.33;49.75;;;3.90;99.90;;;;;;5074207;28;20394;-55
2022/11/18 02:01:35;;;;;;;51.90;48.50;;;3.90;99.90;;;;;;5073156;28;20388;-56
2022/11/18 02:04:01;;;;;;;54.67;51.17;;;3.90;99.90;;;;;;5072418;28;20391;-57
2022/11/18 02:06:27;;;;;;;50.60;47.43;;;3.90;99.90;;;;;;5072751;28;20650;-54
2022/11/18 02:08:53;;;;;;;53.50;50.10;;;3.90;99.90;;;;;;5072519;28;20399;-52
2022/11/18 02:14:06;;;;;;;55.85;52.20;;;3.80;99.90;;;;;;5072439;28;20677;-56
2022/11/18 02:17:11;;;;;;;58.05;54.15;;;3.90;99.90;;;;;;5073212;28;20383;-55
2022/11/18 02:19:45;;;;;;;54.33;50.67;;;3.90;99.90;;;;;;5073351;28;20714;-55
2022/11/18 02:22:32;;;;;;;56.25;52.40;;;3.90;99.90;;;;;;5074017;28;20383;-58
2022/11/18 02:25:14;;;;;;;56.65;52.92;;;3.90;99.90;;;;;;5074074;28;20885;-57
2022/11/18 02:28:05;;;;;;;55.67;51.88;;;3.90;99.90;;;;;;5072568;28;20465;-57
2022/11/18 02:30:36;;;;;;;57.72;54.03;;;3.80;99.90;;;;;;5073701;28;20388;-56
2022/11/18 02:33:22;;;;;;;57.72;53.92;;;3.80;99.90;;;;;;5072624;28;20380;-55
2022/11/18 02:35:57;;;;;;;53.83;50.27;;;3.80;99.90;;;;;;5071123;28;20814;-56
2022/11/18 02:38:31;;;;;;;55.35;51.67;;;3.80;99.90;;;;;;5054907;28;20461;-56
2022/11/18 02:41:26;;;;;;;54.70;51.20;;;3.80;99.90;;;;;;5072408;28;20478;-56
2022/11/18 02:43:54;;;;;;;56.85;53.15;;;3.80;99.90;;;;;;5070004;28;20406;-54
2022/11/18 02:46:33;;;;;;;54.70;51.13;;;3.80;99.90;;;;;;5072417;28;20438;-54
2022/11/18 02:49:02;;;;;;;52.10;48.58;;;3.80;99.90;;;;;;5074470;28;20383;-55
2022/11/18 02:51:30;;;;;;;54.08;50.58;;;3.80;99.90;;;;;;5072314;28;20387;-56
2022/11/18 02:54:04;;;;;;;53.72;50.05;;;3.80;99.90;;;;;;5072338;28;20388;-55
2022/11/18 02:56:32;;;;;;;53.60;49.90;;;3.90;99.90;;;;;;5072679;28;20379;-57
2022/11/18 02:58:57;;;;;;;53.87;50.33;;;3.90;99.90;;;;;;5073449;28;20392;-54
2022/11/18 03:01:29;;;;;;;53.57;50.03;;;3.80;99.90;;;;;;5074643;28;20432;-56
2022/11/18 03:03:55;;;;;;;54.28;50.67;;;3.80;99.90;;;;;;5073663;28;20408;-54
2022/11/18 03:06:37;;;;;;;55.58;51.95;;;3.80;99.90;;;;;;5075066;28;20396;-55
2022/11/18 03:09:06;;;;;;;54.00;50.33;;;3.80;99.90;;;;;;5074720;28;20415;-57
2022/11/18 03:12:15;;;;;;;53.95;50.40;;;3.80;99.90;;;;;;5073876;28;20387;-52
2022/11/18 03:15:01;;;;;;;55.42;51.67;;;3.80;99.90;;;;;;5070239;28;20395;-54
2022/11/18 03:17:45;;;;;;;53.30;49.83;;;3.80;99.90;;;;;;5089100;28;20814;-52
2022/11/18 03:20:23;;;;;;;54.97;51.47;;;3.80;99.90;;;;;;5071526;28;20641;-56
2022/11/18 03:23:24;;;;;;;51.92;48.55;;;3.80;99.90;;;;;;5071529;28;20384;-56
2022/11/18 03:26:01;;;;;;;46.90;43.90;;;3.80;99.90;;;;;;5071299;28;20622;-55
2022/11/18 03:28:34;;;;;;;48.78;45.58;;;3.80;99.90;;;;;;5070940;28;20423;-56
2022/11/18 03:31:14;;;;;;;48.60;45.70;;;3.80;99.90;;;;;;5071892;28;20384;-52
2022/11/18 03:33:46;;;;;;;48.35;45.45;;;3.80;99.90;;;;;;5070246;28;20625;-52
2022/11/18 03:36:15;;;;;;;51.20;48.00;;;3.80;99.90;;;;;;5070259;28;20526;-54
2022/11/18 03:38:47;;;;;;;49.60;46.50;;;3.80;99.90;;;;;;5069774;28;20488;-56
2022/11/18 03:41:15;;;;;;;50.35;47.28;;;3.80;99.90;;;;;;5070139;28;20384;-54
2022/11/18 03:43:48;;;;;;;52.17;48.87;;;3.70;99.90;;;;;;5069956;28;20399;-56
2022/11/18 03:46:22;;;;;;;51.55;48.35;;;3.70;99.90;;;;;;5070792;28;20386;-55
2022/11/18 03:48:51;;;;;;;45.40;42.60;;;3.80;99.90;;;;;;5071446;28;20395;-56
2022/11/18 03:51:22;;;;;;;46.88;43.88;;;3.70;99.90;;;;;;5073270;28;20461;-52
2022/11/18 03:53:59;;;;;;;47.33;44.33;;;3.70;99.90;;;;;;5073546;28;20781;-56
2022/11/18 03:56:30;;;;;;;47.17;44.10;;;3.80;99.90;;;;;;5075243;28;20375;-56
2022/11/18 03:59:14;;;;;;;44.20;41.35;;;3.70;99.90;;;;;;5073966;28;20472;-56
2022/11/18 04:01:45;;;;;;;44.03;41.30;;;3.70;99.90;;;;;;5072095;28;20864;-55
2022/11/18 04:04:12;;;;;;;45.53;42.63;;;3.70;99.90;;;;;;5072051;28;20407;-56
2022/11/18 04:06:44;;;;;;;46.63;43.63;;;3.60;99.90;;;;;;5070563;28;20775;-56
2022/11/18 04:09:19;;;;;;;47.37;44.23;;;3.70;99.90;;;;;;5070261;28;20390;-57
2022/11/18 04:12:03;;;;;;;46.38;43.10;;;3.60;99.90;;;;;;5072159;28;20414;-57
2022/11/18 04:14:36;;;;;;;46.65;43.55;;;3.60;99.90;;;;;;5072245;28;20679;-56
2022/11/18 04:17:11;;;;;;;51.30;47.83;;;3.60;99.90;;;;;;5072708;28;20671;-55
2022/11/18 04:19:37;;;;;;;54.33;50.65;;;3.60;99.90;;;;;;5073121;28;20387;-59
2022/11/18 04:22:02;;;;;;;49.22;45.67;;;3.50;99.90;;;;;;5072219;28;20482;-58
2022/11/18 04:24:28;;;;;;;50.07;46.37;;;3.60;99.90;;;;;;5072617;28;20526;-54
2022/11/18 04:26:54;;;;;;;51.97;48.28;;;3.60;99.90;;;;;;5072384;28;20440;-59
2022/11/18 04:29:19;;;;;;;49.15;45.50;;;3.60;99.90;;;;;;5072727;28;20457;-58
2022/11/18 04:31:45;;;;;;;48.53;44.97;;;3.60;99.90;;;;;;5088357;28;20395;-56
2022/11/18 04:34:10;;;;;;;50.10;46.60;;;3.50;99.90;;;;;;5069486;28;20726;-58
2022/11/18 04:36:36;;;;;;;50.63;46.85;;;3.50;99.90;;;;;;5067662;28;20402;-57
2022/11/18 04:39:01;;;;;;;50.92;47.22;;;3.50;99.90;;;;;;5068947;28;20441;-59
2022/11/18 04:44:29;;;;;;;51.33;47.70;;;3.50;99.90;;;;;;5070440;28;20438;-56
2022/11/18 04:46:56;;;;;;;50.97;47.20;;;3.50;99.90;;;;;;5069880;28;20406;-56
2022/11/18 04:49:23;;;;;;;49.03;45.63;;;3.50;99.90;;;;;;5070562;28;20709;-55
2022/11/18 04:51:49;;;;;;;50.03;46.47;;;3.50;99.90;;;;;;5070556;28;20437;-57
2022/11/18 04:54:15;;;;;;;50.28;46.40;;;3.50;99.90;;;;;;5070302;28;20379;-57
2022/11/18 04:56:42;;;;;;;49.33;45.75;;;3.50;99.90;;;;;;5069830;28;20441;-57
2022/11/18 04:59:08;;;;;;;48.13;44.53;;;3.60;99.90;;;;;;5071925;28;20526;-60
2022/11/18 05:01:34;;;;;;;45.30;41.95;;;3.60;99.90;;;;;;5068872;28;20474;-55
2022/11/18 05:04:00;;;;;;;49.13;45.42;;;3.60;99.90;;;;;;5068185;28;20437;-54
2022/11/18 05:06:27;;;;;;;48.08;44.47;;;3.60;99.90;;;;;;5067607;28;20399;-54
2022/11/18 05:08:53;;;;;;;44.50;41.35;;;3.60;99.90;;;;;;5069655;28;20379;-55
2022/11/18 05:14:03;;;;;;;46.17;42.92;;;3.50;99.90;;;;;;5071345;28;20659;-55
2022/11/18 05:16:29;;;;;;;44.63;41.47;;;3.50;99.90;;;;;;5072181;28;20383;-54
2022/11/18 05:18:54;;;;;;;45.83;42.53;;;3.50;99.90;;;;;;5072073;28;20742;-51
2022/11/18 05:21:20;;;;;;;46.23;42.93;;;3.50;99.90;;;;;;5071782;28;20475;-55
2022/11/18 05:23:45;;;;;;;43.70;40.70;;;3.40;99.90;;;;;;5071877;28;20384;-57
2022/11/18 05:26:11;;;;;;;45.67;42.55;;;3.40;99.90;;;;;;5072869;28;20434;-54
2022/11/18 05:28:37;;;;;;;47.35;44.13;;;3.40;99.90;;;;;;5072697;28;20387;-56
2022/11/18 05:31:12;;;;;;;46.60;43.40;;;3.40;99.90;;;;;;5073269;28;20400;-56
2022/11/18 05:33:38;;;;;;;48.60;45.30;;;3.40;99.90;;;;;;5071634;28;20727;-56
2022/11/18 05:36:06;;;;;;;44.20;41.20;;;3.40;99.90;;;;;;5071155;28;20402;-55
2022/11/18 05:38:33;;;;;;;46.85;43.67;;;3.40;99.90;;;;;;5072000;28;20414;-54
2022/11/18 05:40:59;;;;;;;43.63;40.58;;;3.40;99.90;;;;;;5072481;28;20539;-55
2022/11/18 05:43:25;;;;;;;47.42;44.28;;;3.40;99.90;;;;;;5071784;28;20406;-54
2022/11/18 05:45:51;;;;;;;47.00;43.80;;;3.40;99.90;;;;;;5071215;28;20407;-54
2022/11/18 05:48:17;;;;;;;47.00;43.60;;;3.40;99.90;;;;;;5068153;28;20629;-58
2022/11/18 05:50:46;;;;;;;47.63;44.35;;;3.40;99.90;;;;;;5069735;28;20390;-54
2022/11/18 05:53:11;;;;;;;42.92;39.83;;;3.40;99.90;;;;;;5067524;28;20893;-56
2022/11/18 05:55:59;;;;;;;46.77;43.53;;;3.40;99.90;;;;;;5067237;28;20488;-57
2022/11/18 05:58:24;;;;;;;45.58;42.28;;;3.40;99.90;;;;;;5065536;28;20424;-57
2022/11/18 06:00:54;;;;;;;46.92;43.70;;;3.40;99.90;;;;;;5068204;28;20387;-54
2022/11/18 06:03:27;;;;;;;45.90;42.65;;;3.40;99.90;;;;;;5068134;28;20631;-57
2022/11/18 06:05:55;;;;;;;44.83;41.75;;;3.30;99.90;;;;;;5066476;28;20403;-52
2022/11/18 06:08:23;;;;;;;47.53;44.22;;;3.30;99.90;;;;;;5067066;28;20460;-57
2022/11/18 06:10:50;;;;;;;48.30;45.00;;;3.30;99.90;;;;;;5065093;28;20489;-56
2022/11/18 06:13:23;;;;;;;46.77;43.57;;;3.30;99.90;;;;;;5048777;28;20501;-54
2022/11/18 06:15:49;;;;;;;46.58;43.17;;;3.40;99.90;;;;;;5067822;28;20711;-55
2022/11/18 06:18:26;;;;;;;48.88;45.47;;;3.40;99.90;;;;;;5066147;28;20396;-56
2022/11/18 06:20:55;;;;;;;45.53;42.23;;;3.40;99.90;;;;;;5065926;28;20403;-55
2022/11/18 06:23:21;;;;;;;45.00;42.00;;;3.40;99.90;;;;;;5067433;28;20955;-57
2022/11/18 06:25:48;;;;;;;44.97;41.80;;;3.40;99.90;;;;;;5068738;28;20489;-55
2022/11/18 06:28:16;;;;;;;44.92;41.85;;;3.40;99.90;;;;;;5070331;28;20400;-56
2022/11/18 06:30:42;;;;;;;41.53;38.72;;;3.50;99.90;;;;;;5068488;28;20581;-57
2022/11/18 06:33:08;;;;;;;41.92;38.97;;;3.40;99.90;;;;;;5066910;28;20437;-56
2022/11/18 06:35:33;;;;;;;43.72;40.53;;;3.40;99.90;;;;;;5064887;28;20467;-61
2022/11/18 06:37:59;;;;;;;44.65;41.45;;;3.40;99.90;;;;;;5063400;28;20407;-63
2022/11/18 06:40:25;;;;;;;44.17;41.07;;;3.40;99.90;;;;;;5064335;28;20487;-56
2022/11/18 06:45:35;;;;;;;44.30;41.30;;;3.30;99.90;;;;;;5060379;28;20682;-53
2022/11/18 06:48:00;;;;;;;43.38;40.20;;;3.40;99.90;;;;;;5057001;28;20776;-56
2022/11/18 06:50:27;;;;;;;46.60;43.30;;;3.40;99.90;;;;;;5058893;28;20446;-56
2022/11/18 06:52:53;;;;;;;48.67;45.30;;;3.40;99.90;;;;;;5057232;28;20635;-54
2022/11/18 06:55:18;;;;;;;44.90;41.67;;;3.40;99.90;;;;;;5056460;28;20671;-57
2022/11/18 06:57:44;;;;;;;45.63;42.53;;;3.40;99.90;;;;;;5057787;28;20741;-57
2022/11/18 07:00:11;;;;;;;45.15;42.05;;;3.40;99.90;;;;;;5060924;28;20453;-56
2022/11/18 07:02:37;;;;;;;46.33;43.03;;;3.40;99.90;;;;;;5058144;28;20838;-58
2022/11/18 07:05:03;;;;;;;44.08;41.00;;;3.40;99.90;;;;;;5058369;28;20548;-57
2022/11/18 07:07:29;;;;;;;45.20;42.10;;;3.40;99.90;;;;;;5057896;28;20922;-58
2022/11/18 07:09:54;;;;;;;45.20;41.88;;;3.40;99.90;;;;;;5059462;28;20398;-58
2022/11/18 07:12:20;;;;;;;44.07;41.07;;;3.40;99.90;;;;;;5060224;28;20757;-58
2022/11/18 07:14:46;;;;;;;43.77;40.63;;;3.40;99.90;;;;;;5062625;28;20503;-52
2022/11/18 07:17:11;;;;;;;41.42;38.33;;;3.40;99.90;;;;;;5062557;28;20388;-58
2022/11/18 07:19:38;;;;;;;43.30;40.20;;;3.50;99.90;;;;;;5062321;28;20618;-58
2022/11/18 07:22:06;;;;;;;42.58;39.47;;;3.40;99.90;;;;;;5060038;28;20383;-55
2022/11/18 07:24:32;;;;;;;43.40;40.30;;;3.30;99.90;;;;;;5058273;28;20553;-53
2022/11/18 07:26:58;;;;;;;45.93;42.73;;;3.30;99.90;;;;;;5056972;28;20395;-57
2022/11/18 07:29:24;;;;;;;44.72;41.50;;;3.30;99.90;;;;;;5057047;28;20749;-54
2022/11/18 07:31:50;;;;;;;41.57;38.50;;;3.30;99.90;;;;;;5056920;28;20391;-55
2022/11/18 07:34:16;;;;;;;43.20;40.03;;;3.30;99.90;;;;;;5056985;28;20549;-58
2022/11/18 07:36:42;;;;;;;42.80;39.87;;;3.30;99.90;;;;;;5055371;28;20615;-57
2022/11/18 07:39:08;;;;;;;43.35;40.25;;;3.30;99.90;;;;;;5036238;28;20432;-56
2022/11/18 07:41:34;;;;;;;41.63;38.60;;;3.30;99.90;;;;;;5051721;28;20388;-58
2022/11/18 07:44:01;;;;;;;40.05;37.15;;;3.30;99.90;;;;;;5055769;28;20387;-57
2022/11/18 07:46:36;;;;;;;44.20;41.20;;;3.30;99.90;;;;;;5055642;28;20754;-56
2022/11/18 07:49:04;;;;;;;40.08;37.30;;;3.30;99.90;;;;;;5058238;28;20760;-57
2022/11/18 07:51:33;;;;;;;42.53;39.43;;;3.30;99.90;;;;;;5055540;28;20388;-58
2022/11/18 07:53:59;;;;;;;39.37;36.67;;;3.30;99.90;;;;;;5055656;28;20745;-51
2022/11/18 07:56:25;;;;;;;41.22;38.40;;;3.30;99.90;;;;;;5039702;28;20484;-57
2022/11/18 07:58:53;;;;;;;40.67;37.80;;;3.30;99.90;;;;;;5055994;28;20392;-58
2022/11/18 08:01:21;;;;;;;38.72;36.03;;;3.30;99.90;;;;;;5056252;28;20449;-56
2022/11/18 08:03:47;;;;;;;36.88;34.25;;;3.30;99.90;;;;;;5054055;28;20468;-56
2022/11/18 08:06:15;;;;;;;38.22;35.67;;;3.30;99.90;;;;;;5056198;28;20500;-58
2022/11/18 08:08:42;;;;;;;36.33;33.72;;;3.30;99.90;;;;;;5055290;28;20744;-58
2022/11/18 08:11:10;;;;;;;38.33;35.73;;;3.30;99.90;;;;;;5054357;28;20418;-57
2022/11/18 08:13:36;;;;;;;38.08;35.58;;;3.30;99.90;;;;;;5053742;28;20871;-58
2022/11/18 08:16:03;;;;;;;34.75;32.35;;;3.40;99.90;;;;;;5052811;28;20788;-57
2022/11/18 08:18:30;;;;;;;37.28;34.55;;;3.40;99.90;;;;;;5054001;28;20662;-54
2022/11/18 08:21:01;;;;;;;39.87;37.37;;;3.30;99.90;;;;;;5053931;28;20407;-57
2022/11/18 08:23:27;;;;;;;36.40;33.90;;;3.30;99.90;;;;;;5053852;28;20387;-55
2022/11/18 08:25:52;;;;;;;37.07;34.47;;;3.30;99.90;;;;;;5055577;28;20418;-56
2022/11/18 08:28:18;;;;;;;36.37;33.97;;;3.30;99.90;;;;;;5055192;28;20391;-56
2022/11/18 08:30:43;;;;;;;35.70;33.40;;;3.30;99.90;;;;;;5069931;28;20899;-56
2022/11/18 08:33:09;;;;;;;34.03;31.73;;;3.40;99.90;;;;;;5053717;28;20409;-54
2022/11/18 08:35:35;;;;;;;34.22;31.92;;;3.30;99.90;;;;;;5053090;28;20504;-56
2022/11/18 08:38:00;;;;;;;33.75;31.45;;;3.30;99.90;;;;;;5059968;28;20416;-58
2022/11/18 08:40:26;;;;;;;34.87;32.47;;;3.30;99.90;;;;;;5051667;28;20380;-55
2022/11/18 08:42:51;;;;;;;35.27;32.90;;;3.30;99.90;;;;;;5054130;28;20407;-58
2022/11/18 08:45:17;;;;;;;35.80;33.13;;;3.30;99.90;;;;;;5051228;28;20404;-58
2022/11/18 08:47:43;;;;;;;35.83;33.42;;;3.30;99.90;;;;;;5051970;28;20433;-55
2022/11/18 08:50:10;;;;;;;36.17;33.67;;;3.30;99.90;;;;;;5050103;28;20677;-54
2022/11/18 08:52:36;;;;;;;34.28;31.88;;;3.30;99.90;;;;;;5050368;28;20933;-57
2022/11/18 08:55:03;;;;;;;37.60;35.03;;;3.40;99.90;;;;;;5051541;28;20459;-58
2022/11/18 08:57:28;;;;;;;35.30;32.80;;;3.40;99.90;;;;;;5048491;28;20395;-57
2022/11/18 08:59:54;;;;;;;34.05;31.67;;;3.40;99.90;;;;;;5048702;28;20384;-58
2022/11/18 09:02:21;;;;;;;32.95;30.63;;;3.40;99.90;;;;;;5052154;28;20384;-56
2022/11/18 09:04:49;;;;;;;34.60;32.22;;;3.40;99.90;;;;;;5050070;28;20403;-55
2022/11/18 09:07:15;;;;;;;32.67;30.30;;;3.50;99.90;;;;;;5049069;28;20384;-58
2022/11/18 09:09:40;;;;;;;32.85;30.58;;;3.50;99.90;;;;;;5050709;28;20883;-55
2022/11/18 09:12:08;;;;;;;34.90;32.50;;;3.50;99.90;;;;;;5051916;28;20983;-56
2022/11/18 09:14:34;;;;;;;30.10;28.00;;;3.40;99.90;;;;;;5053782;28;20387;-57
2022/11/18 09:16:59;;;;;;;32.70;30.50;;;3.40;99.90;;;;;;5053472;28;20376;-56
2022/11/18 09:19:25;;;;;;;29.63;27.43;;;3.40;99.90;;;;;;5053718;28;20621;-56
2022/11/18 09:21:51;;;;;;;32.03;29.77;;;3.40;99.90;;;;;;5053707;28;20384;-54
2022/11/18 09:24:17;;;;;;;29.97;27.67;;;3.50;99.90;;;;;;5054601;28;20394;-57
2022/11/18 09:26:42;;;;;;;30.47;28.33;;;3.50;99.90;;;;;;5055226;28;20604;-58
2022/11/18 09:29:10;;;;;;;29.17;27.07;;;3.50;99.90;;;;;;5056134;28;20417;-58
2022/11/18 09:31:36;;;;;;;30.13;27.85;;;3.50;99.90;;;;;;5056996;28;20379;-56
2022/11/18 09:34:01;;;;;;;28.48;26.48;;;3.50;99.90;;;;;;5057973;28;20380;-58
2022/11/18 09:36:27;;;;;;;28.92;26.92;;;3.50;99.90;;;;;;5055466;28;20407;-55
2022/11/18 09:38:53;;;;;;;28.00;26.00;;;3.50;99.90;;;;;;5055179;28;20567;-56
2022/11/18 09:41:33;;;;;;;30.35;28.15;;;3.50;99.90;;;;;;5056472;28;20736;-57
2022/11/18 09:44:19;;;;;;;29.97;27.87;;;3.60;99.90;;;;;;5057355;28;20578;-58
2022/11/18 09:47:07;;;;;;;29.77;27.37;;;3.50;99.90;;;;;;5056054;28;20810;-57
2022/11/18 09:49:41;;;;;;;30.17;27.98;;;3.50;99.90;;;;;;5052792;28;20466;-57
2022/11/18 09:52:32;;;;;;;31.00;28.95;;;3.50;99.90;;;;;;5059249;28;20383;-55
2022/11/18 09:54:58;;;;;;;29.67;27.73;;;3.50;99.90;;;;;;5057384;28;20376;-58
2022/11/18 09:57:45;;;;;;;28.43;26.53;;;3.60;99.90;;;;;;5055484;28;20848;-58
2022/11/18 10:00:16;;;;;;;29.73;27.63;;;3.60;99.90;;;;;;5058432;28;20471;-58
2022/11/18 10:02:59;;;;;;;30.42;28.30;;;3.60;99.90;;;;;;5062265;28;20399;-57
2022/11/18 10:05:28;;;;;;;27.50;25.60;;;3.60;99.90;;;;;;5061451;28;20403;-58
2022/11/18 10:08:13;;;;;;;28.23;26.30;;;3.50;99.90;;;;;;5061503;28;20386;-58
2022/11/18 10:11:05;;;;;;;30.98;28.98;;;3.60;99.90;;;;;;5061147;28;20380;-56
2022/11/18 10:13:53;;;;;;;29.65;27.75;;;3.60;99.90;;;;;;5060169;28;21023;-58
2022/11/18 10:16:34;;;;;;;26.77;25.08;;;3.60;99.90;;;;;;5062438;28;20402;-56
2022/11/18 10:19:09;;;;;;;28.13;26.33;;;3.70;99.90;;;;;;5064152;28;20491;-57
2022/11/18 10:22:01;;;;;;;27.98;26.08;;;3.70;99.90;;;;;;5063669;28;20376;-57
2022/11/18 10:24:33;;;;;;;28.73;26.92;;;3.70;99.90;;;;;;5065832;28;20398;-57
2022/11/18 10:26:59;;;;;;;29.23;27.33;;;3.80;99.90;;;;;;5062515;28;20395;-60
2022/11/18 10:29:25;;;;;;;30.50;28.60;;;3.80;99.90;;;;;;5061471;28;20392;-57
2022/11/18 10:32:01;;;;;;;30.27;28.38;;;3.80;99.90;;;;;;5062875;28;21040;-54
2022/11/18 10:34:27;;;;;;;30.48;28.48;;;3.90;99.90;;;;;;5062334;28;20440;-57
2022/11/18 10:36:59;;;;;;;30.33;28.33;;;3.80;99.90;;;;;;5062978;28;20390;-55
2022/11/18 10:39:25;;;;;;;31.48;29.50;;;3.90;99.90;;;;;;5062266;28;20463;-54
2022/11/18 10:41:54;;;;;;;32.97;30.90;;;3.90;99.90;;;;;;5064997;28;20504;-58
2022/11/18 10:44:39;;;;;;;30.10;28.20;;;3.90;99.90;;;;;;5063184;28;20509;-57
2022/11/18 10:47:25;;;;;;;29.23;27.42;;;4.00;99.90;;;;;;5063187;28;20383;-55
2022/11/18 10:49:59;;;;;;;27.92;26.13;;;3.90;99.90;;;;;;5062223;28;20483;-55
2022/11/18 10:52:26;;;;;;;30.63;28.63;;;3.90;99.90;;;;;;5065461;28;20472;-58
2022/11/18 10:55:26;;;;;;;30.88;28.98;;;4.00;99.90;;;;;;5065907;28;20391;-58
2022/11/18 10:58:00;;;;;;;31.15;29.30;;;4.00;99.90;;;;;;5033196;28;20965;-55
2022/11/18 11:00:32;;;;;;;29.77;27.88;;;4.10;99.90;;;;;;5067425;28;20380;-56
2022/11/18 11:02:58;;;;;;;31.33;29.30;;;4.00;99.90;;;;;;5067247;28;20543;-56
2022/11/18 11:05:24;;;;;;;30.93;29.03;;;4.00;99.90;;;;;;5066808;28;20487;-56
2022/11/18 11:08:22;;;;;;;33.03;31.10;;;3.90;99.90;;;;;;5067192;28;20705;-58
2022/11/18 11:10:55;;;;;;;33.65;31.40;;;3.90;99.90;;;;;;5061930;28;20420;-55
2022/11/18 11:13:25;;;;;;;37.78;35.47;;;3.80;99.90;;;;;;5063916;28;20404;-56
2022/11/18 11:15:53;;;;;;;36.42;34.30;;;3.90;99.90;;;;;;5062444;28;20406;-57
2022/11/18 11:18:41;;;;;;;36.92;34.33;;;3.90;99.90;;;;;;5062927;28;20787;-55
2022/11/18 11:21:18;;;;;;;36.35;34.17;;;3.80;99.90;;;;;;5061557;28;20387;-53
2022/11/18 11:23:45;;;;;;;39.08;36.75;;;3.90;99.90;;;;;;5063676;28;20414;-56
2022/11/18 11:26:40;;;;;;;37.05;34.75;;;3.90;99.90;;;;;;5064423;28;20407;-55
2022/11/18 11:29:21;;;;;;;38.87;36.60;;;3.80;99.90;;;;;;5062190;28;20380;-56
2022/11/18 11:32:15;;;;;;;35.20;33.10;;;3.80;99.90;;;;;;5062780;28;20395;-58
2022/11/18 11:35:20;;;;;;;38.70;36.30;;;3.90;99.90;;;;;;5060493;28;20392;-58
2022/11/18 11:37:57;;;;;;;41.83;39.22;;;3.90;99.90;;;;;;5058783;28;20420;-58
2022/11/18 11:40:38;;;;;;;39.25;36.85;;;3.90;99.90;;;;;;5058600;28;20391;-56
2022/11/18 11:43:42;;;;;;;37.15;34.88;;;3.90;99.90;;;;;;5058726;28;20670;-55
2022/11/18 11:47:45;;;;;;;42.83;40.30;;;3.80;99.90;;;;;;5056939;28;20410;-55
2022/11/18 11:49:51;;;;;;;39.50;37.20;;;3.90;99.90;;;;;;5058347;28;20426;-58
2022/11/18 11:53:04;;;;;;;40.60;38.10;;;3.90;99.90;;;;;;5059663;28;20433;-58
2022/11/18 11:56:03;;;;;;;40.80;38.27;;;3.90;99.90;;;;;;4995371;28;20437;-57
2022/11/18 11:59:05;;;;;;;42.53;39.88;;;4.00;99.90;;;;;;5058455;28;20803;-56
2022/11/18 12:01:37;;;;;;;40.13;37.53;;;3.90;99.90;;;;;;5056871;28;20814;-55
2022/11/18 12:04:12;;;;;;;40.80;38.25;;;4.00;99.90;;;;;;5054285;28;20387;-58
2022/11/18 12:06:41;;;;;;;42.97;40.28;;;4.00;99.90;;;;;;5051243;28;20562;-58
2022/11/18 12:09:24;;;;;;;46.33;43.53;;;4.10;99.90;;;;;;5053474;28;20375;-58
2022/11/18 12:12:33;;;;;;;44.90;42.17;;;4.10;99.90;;;;;;5053397;28;20388;-56
2022/11/18 12:15:05;;;;;;;41.78;39.28;;;4.00;99.90;;;;;;5053748;28;20446;-57
2022/11/18 12:17:55;;;;;;;40.40;37.90;;;4.00;99.90;;;;;;5050250;28;20414;-55
2022/11/18 12:20:36;;;;;;;37.40;35.10;;;4.00;99.90;;;;;;5051444;28;20386;-53
2022/11/18 12:23:20;;;;;;;37.85;35.47;;;4.00;99.90;;;;;;5057964;28;20446;-55
2022/11/18 12:25:49;;;;;;;39.05;36.55;;;4.10;99.90;;;;;;5054153;28;20410;-58
2022/11/18 12:28:35;;;;;;;39.80;37.47;;;4.10;99.90;;;;;;5056420;28;20427;-58
2022/11/18 12:31:21;;;;;;;42.60;39.92;;;4.20;99.90;;;;;;5057874;28;20688;-58
2022/11/18 12:33:52;;;;;;;42.25;39.72;;;4.20;99.90;;;;;;5055178;28;20394;-59
2022/11/18 12:36:31;;;;;;;40.55;37.85;;;4.20;99.90;;;;;;5055028;28;20403;-61
2022/11/18 12:38:58;;;;;;;45.03;42.30;;;4.20;99.90;;;;;;5057317;28;20696;-59
2022/11/18 12:44:43;;;;;;;48.78;46.03;;;4.20;99.90;;;;;;5058439;28;20430;-56
2022/11/18 12:47:13;;;;;;;51.27;48.40;;;4.30;99.90;;;;;;5060185;28;20371;-57
2022/11/18 12:49:44;;;;;;;52.17;49.13;;;4.30;99.90;;;;;;5061647;28;20384;-59
2022/11/18 12:52:30;;;;;;;56.20;52.88;;;4.30;99.90;;;;;;5062363;28;20375;-58
2022/11/18 12:54:58;;;;;;;50.15;47.33;;;4.30;99.90;;;;;;5049094;28;20411;-59
2022/11/18 12:57:28;;;;;;;47.75;45.05;;;4.30;99.90;;;;;;5058755;28;20404;-59
2022/11/18 12:59:54;;;;;;;50.53;47.47;;;4.30;99.90;;;;;;5058786;28;20945;-58
2022/11/18 13:02:25;;;;;;;48.95;46.15;;;4.30;99.90;;;;;;5053803;28;20391;-56
2022/11/18 13:05:11;;;;;;;48.77;45.97;;;4.20;99.90;;;;;;5054453;28;20465;-54
2022/11/18 13:10:39;;;;;;;50.25;47.45;;;4.30;99.90;;;;;;5052222;28;20461;-59
2022/11/18 13:13:11;;;;;;;50.67;47.78;;;4.20;99.90;;;;;;5051902;28;20798;-56
2022/11/18 13:18:26;;;;;;;48.75;46.05;;;4.30;99.90;;;;;;5055025;28;20387;-55
2022/11/18 13:20:56;;;;;;;50.03;47.08;;;4.20;99.90;;;;;;5056075;28;20387;-58
2022/11/18 13:26:30;;;;;;;56.17;53.17;;;4.10;99.90;;;;;;5049297;28;20418;-59
2022/11/18 13:29:14;;;;;;;59.08;55.90;;;4.10;99.90;;;;;;5053824;28;20391;-58